• Join FlightAware (Why Join?)
  • Login
  • US Flag 
10:47PM EDT


 

Airport Tracker/Info


-or-


 

Live Flight TrackerFlight Track Log ✈ GPD95 ✈ 12-Jul-2013 ✈ KTEB - KMVY

Flight Track Log - Related Links

Times and Time Zones

All times are in EDT time to prevent confusion due to time zone crossing. See the GPD95 flight status page for this flight to view local times or setup timezone preferences in your user account.

Time Position Orientation Groundspeed Altitude Reporting Facility
EDT Latitude Longitude Course Direction KTS MPH feet Rate Location/Type
04:11PM 41.0778 -72.7011 77° East  Level Estimated
04:12PM 41.0875 -72.6404 78° East  Level Estimated
04:13PM 41.0973 -72.5798 78° East  Level Estimated
04:14PM 41.1069 -72.5191 78° East  Level Estimated
04:15PM 41.1166 -72.4584 78° East  Level Estimated
04:16PM 41.1262 -72.3977 78° East  Level Estimated
04:17PM 41.1358 -72.3369 78° East  Level Estimated
04:18PM 41.1454 -72.2762 78° East  Level Estimated
04:19PM 41.1549 -72.2154 78° East  Level Estimated
04:20PM 41.1644 -72.1546 78° East  Level Estimated
04:20PM 41.1833 -73.8667 79° East 152 175 7,000  Level New York TRACON
04:21PM 41.1738 -72.0938 78° East  Level Estimated
04:21PM 41.2000 -73.8167 66° East 153 176 7,000  Level New York TRACON
04:22PM 41.1833 -72.0330 78° East  Level Estimated
04:22PM 41.2167 -73.7667 66° East 150 173 7,000  Level New York TRACON
04:23PM 41.1927 -71.9721 78° East  Level Estimated
04:23PM 41.2333 -73.7167 66° East 151 174 7,000  Level New York TRACON
04:24PM 41.2020 -71.9112 78° East  Level Estimated
04:24PM 41.2500 -73.6667 66° East 148 170 7,000  Level New York TRACON
04:25PM 41.2155 -71.8179 79° East  Level FlightAware Approximate
04:25PM 41.2667 -73.6167 66° East 149 171 7,000  Level New York TRACON
04:26PM 41.2833 -73.5667 66° East 150 173 7,000  Level New York TRACON
04:27PM 41.3000 -73.5167 66° East 151 174 7,000  Level New York TRACON
04:28PM 41.3167 -73.4833 56° Northeast 146 168 7,000  Level New York TRACON
04:29PM 41.3333 -73.4167 72° East 150 173 7,000  Level New York TRACON
04:30PM 41.3544 -73.3747 56° Northeast 148 170 7,100  Climbing Boston Center
04:31PM 41.3736 -73.3225 64° Northeast 148 170 7,100  Level Boston Center
04:32PM 41.3908 -73.2703 66° East 149 171 7,100  Level Boston Center
04:33PM 41.4097 -73.2206 63° Northeast 149 171 7,100  Level Boston Center
04:34PM 41.4269 -73.1708 65° Northeast 147 169 7,100  Level Boston Center
04:35PM 41.4439 -73.1242 64° Northeast 146 168 7,100  Level Boston Center
04:36PM 41.4608 -73.0744 66° East 145 167 7,100  Level Boston Center
04:37PM 41.4778 -73.0247 66° East 144 166 7,100  Level Boston Center
04:38PM 41.4967 -72.9750 63° Northeast 144 166 7,100  Level Boston Center
04:39PM 41.5114 -72.9308 66° East 144 166 7,100  Level Boston Center
04:40PM 41.5200 -72.8753 78° East 148 170 7,100  Level Boston Center
04:41PM 41.5203 -72.8228 90° East 149 171 7,100  Level Boston Center
04:42PM 41.5206 -72.7728 90° East 146 168 7,100  Level Boston Center
04:43PM 41.5186 -72.7144 93° East 147 169 7,100  Level Boston Center
04:44PM 41.5208 -72.6619 87° East 145 167 7,100  Level Boston Center
04:45PM 41.5228 -72.6064 87° East 145 167 7,100  Level Boston Center
04:46PM 41.5231 -72.5511 90° East 147 169 7,100  Level Boston Center
04:47PM 41.5231 -72.4928 90° East 147 169 7,100  Level Boston Center
04:48PM 41.5250 -72.4400 87° East 150 173 7,100  Level Boston Center
04:49PM 41.5250 -72.3875 90° East 149 171 7,100  Level Boston Center
04:50PM 41.5083 -72.3375 114° Southeast 167 192 7,100  Level Boston Center
04:51PM 41.4811 -72.2906 128° Southeast 156 180 7,100 -120 Level Boston Center
04:52PM 41.4519 -72.2461 131° Southeast 154 177 6,900 -300 Descending Boston Center
04:53PM 41.4206 -72.2047 135° Southeast 167 192 6,600 -420 Descending Boston Center
04:54PM 41.3933 -72.1606 129° Southeast 155 178 6,200 -420 Descending Boston Center
04:55PM 41.3661 -72.1136 128° Southeast 156 180 5,800 -420 Descending Boston Center
04:56PM 41.3369 -72.0669 130° Southeast 166 191 5,400 -420 Descending Boston Center
04:57PM 41.3347 -72.0200 94° East 155 178 5,100 -240 Descending Boston Center
04:58PM 41.3344 -71.9592 90° East 144 166 5,000 -60 Descending Boston Center
04:59PM 41.3383 -71.9067 84° East 144 166 5,000  Level Boston Center
05:00PM 41.3422 -71.8483 85° East 144 166 5,000  Level Boston Center
05:01PM 41.3461 -71.8014 84° East 141 162 5,000  Level Boston Center
05:02PM 41.3436 -71.7433 93° East 146 168 5,100  Climbing Boston Center
05:03PM 41.3497 -71.6881 82° East 142 163 5,000 -60 Descending Boston Center
05:04PM 41.3492 -71.6356 91° East 150 173 5,000  Level Boston Center
05:05PM 41.3550 -71.5828 82° East 138 159 5,000  Level Boston Center
05:07PM 41.3567 -71.5192 88° East 142 163 5,000  Level Boston Center
05:08PM 41.3583 -71.4667 88° East 144 166 5,000  Level Boston Center
05:09PM 41.3600 -71.4142 88° East 142 163 5,000  Level Boston Center
05:10PM 41.3636 -71.3586 85° East 141 162 5,000  Level Boston Center
05:11PM 41.3672 -71.3089 84° East 140 161 5,000  Level Boston Center
05:12PM 41.3689 -71.2533 88° East 144 166 5,000  Level Boston Center
05:14PM 41.3673 -71.0789 91° East  Level FlightAware Approximate
05:21PM 41.3934 -70.6139 87° East  Level Estimated
05:22PM 41.3934 -70.6139 87° East  Level Estimated
05:23PM 41.3934 -70.6139 87° East  Level Estimated
05:24PM 41.3934 -70.6139 87° East  Level Estimated
05:25PM 41.3934 -70.6139 87° East  Level Estimated
05:26PM 41.3934 -70.6139 87° East  Level Estimated
05:27PM 41.3934 -70.6139 87° East  Level Estimated
05:28PM 41.3934 -70.6139 87° East  Level Estimated
05:29PM 41.3934 -70.6139 87° East  Level Estimated
05:30PM 41.3934 -70.6139 87° East  Level Estimated
05:31PM 41.3934 -70.6139 87° East  Level Estimated
05:32PM 41.3934 -70.6139 87° East  Level Estimated
05:33PM 41.3934 -70.6139 87° East  Level Estimated
05:34PM 41.3934 -70.6139 87° East  Level Estimated
05:35PM 41.3934 -70.6139 87° East  Level Estimated
05:36PM 41.3934 -70.6139 87° East  Level Estimated
05:37PM 41.3934 -70.6139 87° East  Level Estimated
05:38PM 41.3934 -70.6139 87° East  Level Estimated